Phillips, Wisconsin
Current Conditions -  °F | °C
As of 8:55 PM on Thursday 18 Dec 2014 (Local Time) from KPBH Reporting Station
Overcast Overcast  
Wind Chill: -7°   Ceiling: 1400
Heat Index: -7°   Visibility: 10mi
Dew Point: -8°   Wind: 0mph
Humidity: 91%   Direction: NA
Pressure: 30.22"   Gusts: NA
Location:  45.69°N, 90.41°W
Report Text: KPBH 190255Z AUTO 00000KT 10SM OVC014 M07/M08 A3022 RMK AO2 T10711084
Loading
Personal Weather Stations






























Interactive Weather Map New forecast layout! Learn more

10-Day Weather Forecast

Advertisements
Track Severe Weather on mobile